createdAt,value
2022-08-17T00:01:35.164Z,10.30
2022-08-17T00:04:19.349Z,11.00
2022-08-17T00:06:47.547Z,10.20
2022-08-17T00:09:19.070Z,9.40
2022-08-17T00:12:35.115Z,9.87
2022-08-17T00:14:34.151Z,10.57
2022-08-17T00:17:00.864Z,9.60
2022-08-17T00:19:27.588Z,8.77
2022-08-17T00:22:30.907Z,9.17
2022-08-17T00:24:44.203Z,9.10
2022-08-17T00:27:12.909Z,9.97
2022-08-17T00:29:39.647Z,9.83
2022-08-17T00:33:12.432Z,9.30
2022-08-17T00:34:53.256Z,9.73
2022-08-17T00:37:20.019Z,9.90
2022-08-17T00:39:46.771Z,9.07
2022-08-17T00:42:15.599Z,9.40
2022-08-17T00:44:43.224Z,9.93
2022-08-17T00:47:16.107Z,10.50
2022-08-17T00:49:44.771Z,10.70
2022-08-17T00:52:16.798Z,10.30
2022-08-17T00:54:47.410Z,9.67
2022-08-17T00:57:23.629Z,10.30
2022-08-17T01:00:02.384Z,9.33
2022-08-17T01:02:34.400Z,10.00
2022-08-17T01:05:09.549Z,10.40
2022-08-17T01:07:37.830Z,9.87
2022-08-17T01:10:06.645Z,9.60
2022-08-17T01:12:35.244Z,10.10
2022-08-17T01:15:01.891Z,9.70
2022-08-17T01:17:28.599Z,9.27
2022-08-17T01:19:55.243Z,10.10
2022-08-17T01:22:23.463Z,11.03
2022-08-17T01:24:53.660Z,10.10
2022-08-17T01:27:21.407Z,9.33
2022-08-17T01:29:52.045Z,11.10
2022-08-17T01:32:19.429Z,10.07
2022-08-17T01:34:50.435Z,10.63
2022-08-17T01:37:20.471Z,10.17
2022-08-17T01:39:53.014Z,10.63
2022-08-17T01:42:24.568Z,11.37
2022-08-17T01:44:55.106Z,11.63
2022-08-17T01:47:21.805Z,11.63
2022-08-17T01:49:49.160Z,10.70
2022-08-17T01:52:16.064Z,10.03
2022-08-17T01:54:45.681Z,11.60
2022-08-17T01:57:12.764Z,11.30
2022-08-17T01:59:40.003Z,10.87
2022-08-17T02:02:08.778Z,11.73
2022-08-17T02:04:35.438Z,10.97
2022-08-17T02:07:02.148Z,11.60
2022-08-17T02:09:30.409Z,11.67
2022-08-17T02:12:00.050Z,10.60
2022-08-17T02:14:46.684Z,12.47
2022-08-17T02:17:13.483Z,12.03
2022-08-17T02:19:44.934Z,11.83
2022-08-17T02:22:14.738Z,11.80
2022-08-17T02:24:59.537Z,12.67
2022-08-17T02:27:28.795Z,11.60
2022-08-17T02:29:55.500Z,12.10
2022-08-17T02:32:28.164Z,12.40
2022-08-17T02:34:59.820Z,11.40
2022-08-17T02:37:30.760Z,12.07
2022-08-17T02:39:58.515Z,11.27
2022-08-17T02:42:28.972Z,12.27
2022-08-17T02:44:55.704Z,11.23
2022-08-17T02:47:22.358Z,11.60
2022-08-17T02:49:54.270Z,12.27
2022-08-17T02:52:42.945Z,12.43
2022-08-17T02:55:17.963Z,12.30
2022-08-17T02:57:45.353Z,13.20
2022-08-17T03:00:21.190Z,13.27
2022-08-17T03:02:51.385Z,13.00
2022-08-17T03:05:21.503Z,11.90
2022-08-17T03:07:48.437Z,12.00
2022-08-17T03:10:15.597Z,12.23
2022-08-17T03:12:44.055Z,10.70
2022-08-17T03:15:28.842Z,10.57
2022-08-17T03:17:56.766Z,11.90
2022-08-17T03:20:24.919Z,12.40
2022-08-17T03:22:53.996Z,13.23
2022-08-17T03:25:24.975Z,12.13
2022-08-17T03:27:52.021Z,11.80
2022-08-17T03:30:18.852Z,11.80
2022-08-17T03:32:49.552Z,12.20
2022-08-17T03:35:19.039Z,11.50
2022-08-17T03:37:46.313Z,11.10
2022-08-17T03:40:13.317Z,12.33
2022-08-17T03:42:41.062Z,12.00
2022-08-17T03:45:15.379Z,11.40
2022-08-17T03:48:00.787Z,12.83
2022-08-17T03:50:45.940Z,12.70
2022-08-17T03:53:35.024Z,11.53
2022-08-17T03:56:21.829Z,10.60
2022-08-17T03:58:49.281Z,8.70
2022-08-17T04:01:17.424Z,8.60
2022-08-17T04:03:44.097Z,7.60
2022-08-17T04:06:10.728Z,8.00
2022-08-17T04:08:37.384Z,7.20
2022-08-17T04:11:04.139Z,7.33
2022-08-17T04:13:30.798Z,13.83
2022-08-17T04:15:59.173Z,8.93
2022-08-17T04:18:26.069Z,10.03
2022-08-17T04:20:52.823Z,10.10
2022-08-17T04:23:19.645Z,9.93
2022-08-17T04:25:49.179Z,10.77
2022-08-17T04:28:17.913Z,10.00
2022-08-17T04:30:45.642Z,9.40
2022-08-17T04:33:14.041Z,8.93
2022-08-17T04:35:44.862Z,10.40
2022-08-17T04:38:16.702Z,10.40
2022-08-17T04:41:02.064Z,9.57
2022-08-17T04:43:29.763Z,10.17
2022-08-17T04:46:05.796Z,8.63
2022-08-17T04:48:37.463Z,8.43
2022-08-17T04:51:13.184Z,8.90
2022-08-17T04:53:41.925Z,7.90
2022-08-17T04:56:11.752Z,7.77
2022-08-17T04:58:48.193Z,7.80
2022-08-17T05:01:23.306Z,7.80
2022-08-17T05:03:56.722Z,7.60
2022-08-17T05:06:34.117Z,8.10
2022-08-17T05:09:00.854Z,8.07
2022-08-17T05:11:28.812Z,8.20
2022-08-17T05:14:03.249Z,8.27
2022-08-17T05:16:30.175Z,8.60
2022-08-17T05:18:58.612Z,8.00
2022-08-17T05:21:32.838Z,8.40
2022-08-17T05:23:59.612Z,8.97
2022-08-17T05:26:29.329Z,8.73
2022-08-17T05:29:03.952Z,8.70
2022-08-17T05:31:30.890Z,8.83
2022-08-17T05:33:58.237Z,8.33
2022-08-17T05:36:38.129Z,8.40
2022-08-17T05:39:15.882Z,8.63
2022-08-17T05:41:43.472Z,8.60
2022-08-17T05:44:10.754Z,9.03
2022-08-17T05:46:40.611Z,8.50
2022-08-17T05:49:08.637Z,7.83
2022-08-17T05:52:03.053Z,7.30
2022-08-17T05:55:03.269Z,7.40
2022-08-17T05:57:35.618Z,8.53
2022-08-17T06:00:20.633Z,8.13
2022-08-17T06:03:11.837Z,7.90
2022-08-17T06:06:14.611Z,8.60
2022-08-17T06:09:07.836Z,8.43
2022-08-17T06:11:53.979Z,9.17
2022-08-17T06:14:49.379Z,9.37
2022-08-17T06:17:19.278Z,9.50
2022-08-17T06:19:51.337Z,8.70
2022-08-17T06:22:34.188Z,11.10
2022-08-17T06:25:04.157Z,11.63
2022-08-17T06:27:36.762Z,12.13
2022-08-17T06:30:12.580Z,11.47
2022-08-17T06:32:43.469Z,10.40
2022-08-17T06:35:20.570Z,9.23
2022-08-17T06:37:53.197Z,9.17
2022-08-17T06:40:28.899Z,8.90
2022-08-17T06:43:33.206Z,8.87
2022-08-17T06:46:02.948Z,7.67
2022-08-17T06:48:47.253Z,8.70
2022-08-17T06:51:25.868Z,8.20
2022-08-17T06:54:17.086Z,8.50
2022-08-17T06:57:07.819Z,7.70
2022-08-17T06:59:55.563Z,7.90
2022-08-17T07:02:52.680Z,8.60
2022-08-17T07:05:24.945Z,8.63
2022-08-17T07:08:11.536Z,8.60
2022-08-17T07:10:43.290Z,9.13
2022-08-17T07:13:22.047Z,9.87
2022-08-17T07:15:51.800Z,9.23
2022-08-17T07:18:26.851Z,8.80
2022-08-17T07:20:57.727Z,8.37
2022-08-17T07:24:00.743Z,8.10
2022-08-17T07:26:27.999Z,7.20
2022-08-17T07:28:57.993Z,6.80
2022-08-17T07:31:26.427Z,7.00
2022-08-17T07:34:06.815Z,6.77
2022-08-17T07:36:34.378Z,6.43
2022-08-17T07:39:02.566Z,8.10
2022-08-17T07:41:57.878Z,7.43
2022-08-17T07:44:22.412Z,7.50
2022-08-17T07:47:10.279Z,7.40
2022-08-17T07:49:39.869Z,7.73
2022-08-17T07:52:24.273Z,7.13
2022-08-17T07:54:59.560Z,6.57
2022-08-17T07:57:35.386Z,6.03
2022-08-17T08:00:02.031Z,6.10
2022-08-17T08:02:41.372Z,5.70
2022-08-17T08:05:29.868Z,5.70
2022-08-17T08:08:42.608Z,5.77
2022-08-17T08:11:15.446Z,6.30
2022-08-17T08:13:45.537Z,6.07
2022-08-17T08:16:38.945Z,5.90
2022-08-17T08:19:05.770Z,5.93
2022-08-17T08:21:51.268Z,5.60
2022-08-17T08:24:33.158Z,6.23
2022-08-17T08:27:21.054Z,5.73
2022-08-17T08:30:21.304Z,5.87
2022-08-17T08:33:08.625Z,5.87
2022-08-17T08:36:12.182Z,6.13
2022-08-17T08:39:04.140Z,6.30
2022-08-17T08:41:36.310Z,5.80
2022-08-17T08:44:21.622Z,7.17
2022-08-17T08:47:30.630Z,7.10
2022-08-17T08:50:37.728Z,6.60
2022-08-17T08:53:14.295Z,6.13
2022-08-17T08:55:53.652Z,6.60
2022-08-17T08:58:32.212Z,6.43
2022-08-17T09:01:17.551Z,6.80
2022-08-17T09:04:24.550Z,6.40
2022-08-17T09:07:00.982Z,6.50
2022-08-17T09:10:22.541Z,6.90
2022-08-17T09:13:11.913Z,6.43
2022-08-17T09:15:57.350Z,6.70
2022-08-17T09:19:00.417Z,6.07
2022-08-17T09:21:33.880Z,6.10
2022-08-17T09:24:12.828Z,6.07
2022-08-17T09:26:50.041Z,5.93
2022-08-17T09:29:17.470Z,6.27
2022-08-17T09:31:50.270Z,5.97
2022-08-17T09:34:22.341Z,6.00
2022-08-17T09:37:23.548Z,6.10
2022-08-17T09:39:55.524Z,6.17
2022-08-17T09:42:33.271Z,5.90
2022-08-17T09:45:36.986Z,6.30
2022-08-17T09:48:13.714Z,5.60
2022-08-17T09:51:05.263Z,5.90
2022-08-17T09:53:33.162Z,5.40
2022-08-17T09:56:25.283Z,5.93
2022-08-17T09:59:38.619Z,5.77
2022-08-17T10:02:25.215Z,5.50
2022-08-17T10:05:09.687Z,5.20
2022-08-17T10:07:46.514Z,5.30
2022-08-17T10:10:25.812Z,5.20
2022-08-17T10:13:00.088Z,5.20
2022-08-17T10:16:25.885Z,5.10
2022-08-17T10:19:03.711Z,4.77
2022-08-17T10:22:00.861Z,4.80
2022-08-17T10:25:21.727Z,5.20
2022-08-17T10:27:52.834Z,5.03
2022-08-17T10:30:22.547Z,5.20
2022-08-17T10:32:50.441Z,4.90
2022-08-17T10:35:25.916Z,5.13
2022-08-17T10:38:17.345Z,4.70
2022-08-17T10:40:49.883Z,4.87
2022-08-17T10:43:31.366Z,4.90
2022-08-17T10:46:10.396Z,5.20
2022-08-17T10:49:11.710Z,4.70
2022-08-17T10:51:40.516Z,4.70
2022-08-17T10:54:27.686Z,4.67
2022-08-17T10:56:56.116Z,4.20
2022-08-17T10:59:35.045Z,4.13
2022-08-17T11:02:12.357Z,4.30
2022-08-17T11:05:00.913Z,4.70
2022-08-17T11:08:05.532Z,4.20
2022-08-17T11:11:06.839Z,4.60
2022-08-17T11:14:11.031Z,4.30
2022-08-17T11:16:37.831Z,4.23
2022-08-17T11:19:10.261Z,4.30
2022-08-17T11:22:05.845Z,4.27
2022-08-17T11:24:47.748Z,4.70
2022-08-17T11:27:26.618Z,4.20
2022-08-17T11:30:01.519Z,4.20
2022-08-17T11:32:47.154Z,4.40
2022-08-17T11:35:30.304Z,4.10
2022-08-17T11:38:18.726Z,3.43
2022-08-17T11:41:12.821Z,4.10
2022-08-17T11:44:12.584Z,4.10
2022-08-17T11:47:16.664Z,4.10
2022-08-17T11:50:16.748Z,3.97
2022-08-17T11:52:49.114Z,3.97
2022-08-17T11:55:40.719Z,4.27
2022-08-17T11:58:37.362Z,4.10
2022-08-17T12:01:10.077Z,4.00
2022-08-17T12:03:55.653Z,4.17
2022-08-17T12:06:34.447Z,4.70
2022-08-17T12:09:16.237Z,3.80
2022-08-17T12:12:13.163Z,4.47
2022-08-17T12:15:09.008Z,4.03
2022-08-17T12:17:40.691Z,4.10
2022-08-17T12:20:24.987Z,4.07
2022-08-17T12:22:54.856Z,4.17
2022-08-17T12:25:33.022Z,4.07
2022-08-17T12:28:05.990Z,3.80
2022-08-17T12:30:34.178Z,3.80
2022-08-17T12:33:00.839Z,4.20
2022-08-17T12:35:36.666Z,4.20
2022-08-17T12:38:32.163Z,4.73
2022-08-17T12:40:58.017Z,4.30
2022-08-17T12:43:27.874Z,3.93
2022-08-17T12:46:01.255Z,4.43
2022-08-17T12:48:59.867Z,4.10
2022-08-17T12:51:28.987Z,4.57
2022-08-17T12:53:55.932Z,4.10
2022-08-17T12:56:27.009Z,4.50
2022-08-17T12:58:56.593Z,4.50
2022-08-17T13:01:24.908Z,4.37
2022-08-17T13:03:54.200Z,4.40
2022-08-17T13:06:33.120Z,4.40
2022-08-17T13:09:36.107Z,4.93
2022-08-17T13:12:07.682Z,4.80
2022-08-17T13:14:35.149Z,5.30
2022-08-17T13:17:13.302Z,4.90
2022-08-17T13:19:52.124Z,4.53
2022-08-17T13:22:23.084Z,4.60
2022-08-17T13:24:55.862Z,4.63
2022-08-17T13:27:25.302Z,5.10
2022-08-17T13:29:55.418Z,4.67
2022-08-17T13:32:43.690Z,5.00
2022-08-17T13:35:39.210Z,4.63
2022-08-17T13:38:29.503Z,4.93
2022-08-17T13:40:56.183Z,4.43
2022-08-17T13:43:40.798Z,4.90
2022-08-17T13:46:10.649Z,4.50
2022-08-17T13:48:37.416Z,4.73
2022-08-17T13:51:12.715Z,4.10
2022-08-17T13:53:40.201Z,4.50
2022-08-17T13:56:33.430Z,4.40
2022-08-17T13:59:03.097Z,4.30
2022-08-17T14:01:29.775Z,4.17
2022-08-17T14:03:57.202Z,4.37
2022-08-17T14:06:52.414Z,4.07
2022-08-17T14:09:16.300Z,4.17
2022-08-17T14:11:44.976Z,4.73
2022-08-17T14:14:13.784Z,4.70
2022-08-17T14:16:41.788Z,4.37
2022-08-17T14:19:13.167Z,4.67
2022-08-17T14:21:42.734Z,4.10
2022-08-17T14:24:20.827Z,4.00
2022-08-17T14:26:52.890Z,3.77
2022-08-17T14:29:24.949Z,4.20
2022-08-17T14:31:54.442Z,3.93
2022-08-17T14:34:22.832Z,3.97
2022-08-17T14:36:49.538Z,3.60
2022-08-17T14:39:17.429Z,3.70
2022-08-17T14:41:44.545Z,3.90
2022-08-17T14:44:12.490Z,4.37
2022-08-17T14:46:40.904Z,3.57
2022-08-17T14:49:08.881Z,3.60
2022-08-17T14:51:44.182Z,4.13
2022-08-17T14:54:33.026Z,3.80
2022-08-17T14:57:23.413Z,3.50
2022-08-17T14:59:47.171Z,3.97
2022-08-17T15:02:13.787Z,4.27
2022-08-17T15:04:45.408Z,4.03
2022-08-17T15:07:12.405Z,4.10
2022-08-17T15:09:39.146Z,4.40
2022-08-17T15:12:08.555Z,4.40
2022-08-17T15:14:35.911Z,4.43
2022-08-17T15:17:05.664Z,4.47
2022-08-17T15:19:32.309Z,4.50
2022-08-17T15:21:58.964Z,4.47
2022-08-17T15:24:25.739Z,4.50
2022-08-17T15:26:52.417Z,4.30
2022-08-17T15:29:19.051Z,4.73
2022-08-17T15:31:45.780Z,4.90
2022-08-17T15:34:12.540Z,4.80
2022-08-17T15:36:47.920Z,5.20
2022-08-17T15:39:19.758Z,4.87
2022-08-17T15:41:47.322Z,4.60
2022-08-17T15:44:32.445Z,4.67
2022-08-17T15:47:02.123Z,5.03
2022-08-17T15:49:30.575Z,4.60
2022-08-17T15:51:57.287Z,4.40
2022-08-17T15:54:23.972Z,4.20
2022-08-17T15:56:50.873Z,4.60
2022-08-17T15:59:17.830Z,4.57
2022-08-17T16:03:04.671Z,5.10
2022-08-17T16:04:33.886Z,4.43
2022-08-17T16:07:00.627Z,4.60
2022-08-17T16:09:28.191Z,4.30
2022-08-17T16:11:56.127Z,4.40
2022-08-17T16:14:35.038Z,4.40
2022-08-17T16:17:03.170Z,4.10
2022-08-17T16:19:29.922Z,4.30
2022-08-17T16:21:56.616Z,4.77
2022-08-17T16:24:23.224Z,4.47
2022-08-17T16:26:49.908Z,5.20
2022-08-17T16:29:16.659Z,4.50
2022-08-17T16:31:43.380Z,4.93
2022-08-17T16:34:17.069Z,4.90
2022-08-17T16:36:55.433Z,4.50
2022-08-17T16:39:28.959Z,4.90
2022-08-17T16:41:56.612Z,5.20
2022-08-17T16:44:23.674Z,5.03
2022-08-17T16:46:50.534Z,5.30
2022-08-17T16:49:24.423Z,4.73
2022-08-17T16:52:06.333Z,5.43
2022-08-17T16:54:33.477Z,4.83
2022-08-17T16:57:00.249Z,4.60
2022-08-17T16:59:31.818Z,5.00
2022-08-17T17:02:11.005Z,4.57
2022-08-17T17:04:50.433Z,5.77
2022-08-17T17:07:38.383Z,6.07
2022-08-17T17:10:12.488Z,5.23
2022-08-17T17:13:02.606Z,4.83
2022-08-17T17:15:39.633Z,4.70
2022-08-17T17:18:12.126Z,5.03
2022-08-17T17:20:47.483Z,5.07
2022-08-17T17:23:14.313Z,4.93
2022-08-17T17:25:48.908Z,4.90
2022-08-17T17:28:53.316Z,4.70
2022-08-17T17:31:23.817Z,4.97
2022-08-17T17:33:54.582Z,5.03
2022-08-17T17:36:51.786Z,5.30
2022-08-17T17:39:51.321Z,4.80
2022-08-17T17:42:24.430Z,5.00
2022-08-17T17:45:16.765Z,4.90
2022-08-17T17:47:46.980Z,4.60
2022-08-17T17:50:16.749Z,4.77
2022-08-17T17:52:49.369Z,4.50
2022-08-17T17:55:34.597Z,4.67
2022-08-17T17:58:07.261Z,4.57
2022-08-17T18:00:49.141Z,4.60
2022-08-17T18:03:27.978Z,4.73
2022-08-17T18:06:24.214Z,4.73
2022-08-17T18:08:57.223Z,4.43
2022-08-17T18:11:39.827Z,4.40
2022-08-17T18:14:25.286Z,4.70
2022-08-17T18:16:55.931Z,5.23
2022-08-17T18:19:30.650Z,4.37
2022-08-17T18:22:14.033Z,4.60
2022-08-17T18:24:44.729Z,4.60
2022-08-17T18:27:25.583Z,4.47
2022-08-17T18:29:54.583Z,4.70
2022-08-17T18:32:33.673Z,4.90
2022-08-17T18:35:09.390Z,4.60
2022-08-17T18:37:46.798Z,4.97
2022-08-17T18:40:17.826Z,4.53
2022-08-17T18:42:50.237Z,4.67
2022-08-17T18:45:31.029Z,4.47
2022-08-17T18:47:57.847Z,4.60
2022-08-17T18:50:28.390Z,4.70
2022-08-17T18:53:20.692Z,4.63
2022-08-17T18:56:16.400Z,5.00
2022-08-17T18:58:50.661Z,4.63
2022-08-17T19:01:20.003Z,4.90
2022-08-17T19:03:46.887Z,4.87
2022-08-17T19:06:20.332Z,5.23
2022-08-17T19:08:47.035Z,4.60
2022-08-17T19:11:32.378Z,5.30
2022-08-17T19:14:04.236Z,5.37
2022-08-17T19:16:59.007Z,5.17
2022-08-17T19:19:32.457Z,5.53
2022-08-17T19:22:27.011Z,5.00
2022-08-17T19:25:16.061Z,5.00
2022-08-17T19:27:57.411Z,4.97
2022-08-17T19:30:24.911Z,4.67
2022-08-17T19:32:53.046Z,5.13
2022-08-17T19:35:20.743Z,5.23
2022-08-17T19:38:19.901Z,4.40
2022-08-17T19:40:54.480Z,4.60
2022-08-17T19:43:25.562Z,4.87
2022-08-17T19:46:14.962Z,5.40
2022-08-17T19:49:07.462Z,4.67
2022-08-17T19:51:51.190Z,4.50
2022-08-17T19:54:44.144Z,4.97
2022-08-17T19:57:18.491Z,4.63
2022-08-17T19:59:54.265Z,4.70
2022-08-17T20:02:26.940Z,5.10
2022-08-17T20:04:56.928Z,4.97
2022-08-17T20:07:28.728Z,5.00
2022-08-17T20:10:04.032Z,4.73
2022-08-17T20:12:36.759Z,5.07
2022-08-17T20:15:10.616Z,4.70
2022-08-17T20:17:44.061Z,5.87
2022-08-17T20:20:38.731Z,5.30
2022-08-17T20:23:26.413Z,6.40
2022-08-17T20:25:52.953Z,5.80
2022-08-17T20:28:23.874Z,6.27
2022-08-17T20:30:51.280Z,6.20
2022-08-17T20:33:28.949Z,6.17
2022-08-17T20:36:04.935Z,7.20
2022-08-17T20:38:40.162Z,6.80
2022-08-17T20:41:13.875Z,6.67
2022-08-17T20:43:40.580Z,6.03
2022-08-17T20:46:20.520Z,5.87
2022-08-17T20:48:51.009Z,5.83
2022-08-17T20:51:17.986Z,5.73
2022-08-17T20:53:47.603Z,6.50
2022-08-17T20:56:43.646Z,6.10
2022-08-17T20:59:24.071Z,6.40
2022-08-17T21:02:08.933Z,6.40
2022-08-17T21:04:49.873Z,6.00
2022-08-17T21:07:33.149Z,5.60
2022-08-17T21:10:17.261Z,6.10
2022-08-17T21:12:49.716Z,5.60
2022-08-17T21:15:53.969Z,5.90
2022-08-17T21:18:40.853Z,6.40
2022-08-17T21:21:29.245Z,7.57
2022-08-17T21:24:04.889Z,8.73
2022-08-17T21:26:50.276Z,8.97
2022-08-17T21:29:32.368Z,10.00
2022-08-17T21:32:03.514Z,10.40
2022-08-17T21:34:38.044Z,10.57
2022-08-17T21:37:20.030Z,11.87
2022-08-17T21:39:51.045Z,12.03
2022-08-17T21:42:23.220Z,11.50
2022-08-17T21:44:52.552Z,10.93
2022-08-17T21:47:23.653Z,12.50
2022-08-17T21:49:51.687Z,14.20
2022-08-17T21:52:22.806Z,14.20
2022-08-17T21:54:52.272Z,14.17
2022-08-17T21:57:27.480Z,15.60
2022-08-17T21:59:57.481Z,15.57
2022-08-17T22:02:30.281Z,16.37
2022-08-17T22:05:00.044Z,16.20
2022-08-17T22:07:34.882Z,17.73
2022-08-17T22:10:01.559Z,20.40
2022-08-17T22:12:28.297Z,17.20
2022-08-17T22:15:00.909Z,19.27
2022-08-17T22:17:39.541Z,20.30
2022-08-17T22:20:07.057Z,19.77
2022-08-17T22:23:05.671Z,21.50
2022-08-17T22:25:36.299Z,22.83
2022-08-17T22:28:08.227Z,24.30
2022-08-17T22:30:43.838Z,27.00
2022-08-17T22:33:29.354Z,25.87
2022-08-17T22:36:14.424Z,26.80
2022-08-17T22:38:43.673Z,25.83
2022-08-17T22:41:16.620Z,26.80
2022-08-17T22:43:44.822Z,29.40
2022-08-17T22:46:12.206Z,28.00
2022-08-17T22:48:50.111Z,27.93
2022-08-17T22:51:24.384Z,29.63
2022-08-17T22:54:14.311Z,29.80
2022-08-17T22:57:18.893Z,28.10
2022-08-17T22:59:55.767Z,28.33
2022-08-17T23:02:32.400Z,28.20
2022-08-17T23:05:14.207Z,28.30
2022-08-17T23:07:42.510Z,31.00
2022-08-17T23:10:11.596Z,30.20
2022-08-17T23:12:39.609Z,30.93
2022-08-17T23:15:17.483Z,30.60
2022-08-17T23:17:45.495Z,30.50
2022-08-17T23:20:13.943Z,29.30
2022-08-17T23:22:51.855Z,31.43
2022-08-17T23:25:29.793Z,31.67
2022-08-17T23:27:58.321Z,29.40
2022-08-17T23:30:25.703Z,32.73
2022-08-17T23:32:54.185Z,31.30
2022-08-17T23:35:39.289Z,30.20
2022-08-17T23:38:09.730Z,31.20
2022-08-17T23:40:37.722Z,31.17
2022-08-17T23:43:11.518Z,31.17
2022-08-17T23:45:53.975Z,34.07
2022-08-17T23:48:27.797Z,32.67
2022-08-17T23:51:05.903Z,31.60
2022-08-17T23:53:34.847Z,33.60
2022-08-17T23:56:03.924Z,32.33
2022-08-17T23:58:38.422Z,30.50
